Terminal Aerodrome Forecast
Issued by NWS Charleston, WV

Current Version | Previous Version | Text Only | Print | Product List | Glossary Off
Versions: 1 2 3 4 5 6 7 8 9 10 11 12 13 14 15 16 17 18 19 20 21 22 23 24 25

000
FTUS41 KRLX 221123
TAFEKN
TAF
KEKN 221123Z 2212/2312 00000KT P6SM FEW040 SCT070 OVC090
     FM221700 17009KT P6SM SCT250
     FM222300 17010KT P6SM BKN100
     FM230200 17012G22KT P6SM OVC060
     FM230300 17014G26KT P6SM -SHRA OVC060
     FM230600 18016G29KT 4SM -SHRA OVC040
     FM230800 18014G26KT 2SM -SHRA BKN030
     FM231000 19011G19KT 2SM -SHRA BKN022=

USA.gov is the U.S. government's official web portal to all federal, state and local government web resources and services.